createdAt,value
2023-01-29T00:01:53.164Z,-1.20
2023-01-29T00:04:59.115Z,-1.16
2023-01-29T00:08:02.533Z,-1.24
2023-01-29T00:11:09.021Z,-1.23
2023-01-29T00:14:12.628Z,-1.23
2023-01-29T00:17:16.323Z,-1.36
2023-01-29T00:20:20.099Z,-1.54
2023-01-29T00:23:25.323Z,-1.61
2023-01-29T00:26:29.460Z,-1.77
2023-01-29T00:29:32.906Z,-1.76
2023-01-29T00:32:36.510Z,-1.94
2023-01-29T00:35:41.151Z,-1.98
2023-01-29T00:38:44.503Z,-2.09
2023-01-29T00:42:06.564Z,-2.15
2023-01-29T00:45:11.538Z,-2.28
2023-01-29T00:48:14.920Z,-2.36
2023-01-29T00:51:19.602Z,-2.37
2023-01-29T00:54:23.334Z,-2.38
2023-01-29T00:57:29.282Z,-2.33
2023-01-29T01:00:33.701Z,-2.21
2023-01-29T01:03:42.502Z,-1.96
2023-01-29T01:06:47.771Z,-1.84
2023-01-29T01:10:09.493Z,-1.69
2023-01-29T01:13:13.108Z,-1.61
2023-01-29T01:16:18.909Z,-1.72
2023-01-29T01:19:22.559Z,-1.63
2023-01-29T01:22:26.100Z,-1.55
2023-01-29T01:25:29.726Z,-1.56
2023-01-29T01:28:33.091Z,-1.55
2023-01-29T01:31:36.899Z,-1.49
2023-01-29T01:34:40.811Z,-1.49
2023-01-29T01:37:44.704Z,-1.45
2023-01-29T01:40:48.132Z,-1.44
2023-01-29T01:43:55.834Z,-1.40
2023-01-29T01:47:01.989Z,-1.39
2023-01-29T01:50:16.117Z,-1.47
2023-01-29T01:53:26.854Z,-1.57
2023-01-29T01:56:40.621Z,-1.71
2023-01-29T01:59:50.568Z,-1.68
2023-01-29T02:03:13.947Z,-1.89
2023-01-29T02:06:36.559Z,-1.62
2023-01-29T02:09:46.853Z,-1.60
2023-01-29T02:12:51.624Z,-1.64
2023-01-29T02:15:54.897Z,-1.61
2023-01-29T02:18:59.818Z,-1.58
2023-01-29T02:22:29.384Z,-1.64
2023-01-29T02:25:48.991Z,-1.66
2023-01-29T02:28:56.798Z,-1.77
2023-01-29T02:32:29.435Z,-1.99
2023-01-29T02:35:39.407Z,-1.87
2023-01-29T02:39:02.108Z,-1.86
2023-01-29T02:42:35.984Z,-1.94
2023-01-29T02:45:53.707Z,-1.97
2023-01-29T02:49:05.872Z,-1.91
2023-01-29T02:52:18.580Z,-1.73
2023-01-29T02:55:30.071Z,-1.53
2023-01-29T02:58:47.914Z,-1.35
2023-01-29T03:02:05.510Z,-1.29
2023-01-29T03:05:17.711Z,-1.24
2023-01-29T03:08:37.354Z,-1.16
2023-01-29T03:11:45.988Z,-1.15
2023-01-29T03:15:11.324Z,-1.14
2023-01-29T03:18:19.748Z,-1.04
2023-01-29T03:21:48.949Z,-1.04
2023-01-29T03:25:20.850Z,-1.05
2023-01-29T03:28:43.484Z,-1.05
2023-01-29T03:32:06.997Z,-1.04
2023-01-29T03:35:13.248Z,-1.04
2023-01-29T03:38:17.322Z,-1.03
2023-01-29T03:41:31.543Z,-1.03
2023-01-29T03:44:48.927Z,-1.04
2023-01-29T03:48:00.952Z,-1.04
2023-01-29T03:51:26.476Z,-1.01
2023-01-29T03:54:44.385Z,-1.01
2023-01-29T03:58:00.020Z,-0.97
2023-01-29T04:01:14.775Z,-0.92
2023-01-29T04:04:27.077Z,-0.89
2023-01-29T04:07:33.500Z,-0.89
2023-01-29T04:10:41.557Z,-0.87
2023-01-29T04:13:47.031Z,-0.86
2023-01-29T04:16:56.103Z,-0.89
2023-01-29T04:20:01.753Z,-0.84
2023-01-29T04:23:07.540Z,-0.87
2023-01-29T04:26:37.850Z,-0.82
2023-01-29T04:30:06.763Z,-0.79
2023-01-29T04:33:20.138Z,-0.88
2023-01-29T04:37:07.798Z,-0.78
2023-01-29T04:40:24.012Z,-0.79
2023-01-29T04:43:56.969Z,-0.80
2023-01-29T04:47:18.935Z,-0.76
2023-01-29T04:50:26.866Z,-0.72
2023-01-29T04:53:50.119Z,-0.72
2023-01-29T04:57:02.780Z,-0.69
2023-01-29T05:00:13.178Z,-0.68
2023-01-29T05:03:17.423Z,-0.69
2023-01-29T05:06:21.537Z,-0.71
2023-01-29T05:09:26.270Z,-0.78
2023-01-29T05:12:31.387Z,-0.71
2023-01-29T05:15:39.394Z,-0.75
2023-01-29T05:18:43.077Z,-0.73
2023-01-29T05:21:49.438Z,-0.73
2023-01-29T05:24:53.113Z,-0.73
2023-01-29T05:28:14.131Z,-0.73
2023-01-29T05:31:17.575Z,-0.74
2023-01-29T05:34:21.371Z,-0.92
2023-01-29T05:37:24.584Z,-0.75
2023-01-29T05:40:28.522Z,-0.78
2023-01-29T05:43:31.729Z,-0.75
2023-01-29T05:46:35.108Z,-0.72
2023-01-29T05:49:38.859Z,-0.75
2023-01-29T05:52:42.929Z,-0.74
2023-01-29T05:55:48.014Z,-0.75
2023-01-29T05:58:51.770Z,-0.74
2023-01-29T06:01:55.013Z,-0.77
2023-01-29T06:04:58.728Z,-0.74
2023-01-29T06:08:01.899Z,-0.73
2023-01-29T06:11:12.402Z,-0.75
2023-01-29T06:14:15.519Z,-0.73
2023-01-29T06:17:19.030Z,-0.68
2023-01-29T06:20:23.079Z,-0.70
2023-01-29T06:23:26.549Z,-0.62
2023-01-29T06:26:30.654Z,-0.72
2023-01-29T06:29:36.651Z,-0.71
2023-01-29T06:32:41.422Z,-0.62
2023-01-29T06:35:44.944Z,-0.61
2023-01-29T06:38:48.438Z,-0.61
2023-01-29T06:41:52.183Z,-0.58
2023-01-29T06:44:56.596Z,-0.55
2023-01-29T06:48:01.582Z,-0.53
2023-01-29T06:51:06.749Z,-0.45
2023-01-29T06:54:11.336Z,-0.38
2023-01-29T06:57:14.541Z,-0.35
2023-01-29T07:00:19.248Z,-0.34
2023-01-29T07:03:22.534Z,-0.33
2023-01-29T07:06:29.593Z,-0.31
2023-01-29T07:09:33.028Z,-0.36
2023-01-29T07:12:37.089Z,-0.30
2023-01-29T07:15:40.590Z,-0.28
2023-01-29T07:18:44.009Z,-0.27
2023-01-29T07:21:47.151Z,-0.25
2023-01-29T07:24:50.674Z,-0.24
2023-01-29T07:27:54.031Z,-0.22
2023-01-29T07:30:59.448Z,-0.25
2023-01-29T07:34:03.247Z,-0.17
2023-01-29T07:37:08.119Z,-0.10
2023-01-29T07:40:12.131Z,-0.10
2023-01-29T07:43:16.934Z,-0.03
2023-01-29T07:46:21.095Z,0.01
2023-01-29T07:49:24.802Z,0.06
2023-01-29T07:52:30.822Z,0.11
2023-01-29T07:55:34.503Z,0.14
2023-01-29T07:58:37.763Z,0.19
2023-01-29T08:01:41.133Z,0.27
2023-01-29T08:04:44.627Z,0.27
2023-01-29T08:08:05.822Z,0.33
2023-01-29T08:11:10.453Z,0.33
2023-01-29T08:14:13.563Z,0.38
2023-01-29T08:17:17.865Z,0.40
2023-01-29T08:20:22.566Z,0.41
2023-01-29T08:23:27.448Z,0.38
2023-01-29T08:26:30.920Z,0.35
2023-01-29T08:29:34.403Z,0.32
2023-01-29T08:32:38.214Z,0.29
2023-01-29T08:35:41.690Z,0.35
2023-01-29T08:38:44.751Z,0.32
2023-01-29T08:41:48.086Z,0.35
2023-01-29T08:44:51.503Z,0.39
2023-01-29T08:47:55.070Z,0.37
2023-01-29T08:50:59.825Z,0.40
2023-01-29T08:54:03.381Z,0.31
2023-01-29T08:57:08.613Z,0.31
2023-01-29T09:00:19.861Z,0.29
2023-01-29T09:03:23.498Z,0.24
2023-01-29T09:06:26.845Z,0.33
2023-01-29T09:09:30.349Z,0.32
2023-01-29T09:12:34.144Z,0.37
2023-01-29T09:15:37.708Z,0.44
2023-01-29T09:18:40.997Z,0.52
2023-01-29T09:21:45.205Z,0.56
2023-01-29T09:24:48.641Z,0.58
2023-01-29T09:27:52.036Z,0.64
2023-01-29T09:30:55.827Z,0.70
2023-01-29T09:33:59.399Z,0.73
2023-01-29T09:37:02.786Z,0.74
2023-01-29T09:40:08.093Z,0.75
2023-01-29T09:43:19.808Z,0.92
2023-01-29T09:46:38.728Z,0.92
2023-01-29T09:49:47.407Z,0.94
2023-01-29T09:53:07.519Z,0.95
2023-01-29T09:56:21.695Z,0.95
2023-01-29T09:59:28.099Z,0.89
2023-01-29T10:02:37.252Z,0.94
2023-01-29T10:05:55.671Z,1.03
2023-01-29T10:08:59.310Z,1.03
2023-01-29T10:12:13.284Z,0.84
2023-01-29T10:15:34.987Z,0.81
2023-01-29T10:19:21.857Z,0.75
2023-01-29T10:22:27.815Z,0.60
2023-01-29T10:25:35.904Z,0.75
2023-01-29T10:28:48.476Z,0.68
2023-01-29T10:31:57.302Z,0.61
2023-01-29T10:35:22.174Z,0.57
2023-01-29T10:38:38.836Z,0.55
2023-01-29T10:42:20.084Z,0.54
2023-01-29T10:45:44.709Z,0.63
2023-01-29T10:49:24.922Z,0.54
2023-01-29T10:52:44.547Z,0.51
2023-01-29T10:56:20.989Z,0.47
2023-01-29T10:59:28.976Z,0.24
2023-01-29T11:02:34.076Z,0.50
2023-01-29T11:06:16.537Z,0.49
2023-01-29T11:09:39.892Z,0.64
2023-01-29T11:12:44.864Z,0.54
2023-01-29T11:15:53.044Z,0.58
2023-01-29T11:18:59.674Z,0.62
2023-01-29T11:22:04.587Z,0.76
2023-01-29T11:25:16.283Z,0.63
2023-01-29T11:28:43.307Z,0.49
2023-01-29T11:31:47.835Z,0.57
2023-01-29T11:35:03.801Z,0.42
2023-01-29T11:38:30.453Z,0.51
2023-01-29T11:41:44.004Z,0.53
2023-01-29T11:44:47.867Z,0.64
2023-01-29T11:47:55.456Z,0.64
2023-01-29T11:51:01.206Z,0.61
2023-01-29T11:54:06.644Z,0.73
2023-01-29T11:57:38.905Z,0.77
2023-01-29T12:00:48.304Z,0.57
2023-01-29T12:03:54.076Z,0.56
2023-01-29T12:06:58.894Z,0.38
2023-01-29T12:10:03.616Z,0.41
2023-01-29T12:13:09.933Z,0.40
2023-01-29T12:16:36.968Z,0.42
2023-01-29T12:19:49.246Z,0.54
2023-01-29T12:23:11.906Z,0.45
2023-01-29T12:26:22.192Z,0.50
2023-01-29T12:29:45.883Z,0.54
2023-01-29T12:33:08.834Z,0.44
2023-01-29T12:36:47.233Z,0.43
2023-01-29T12:39:53.574Z,0.36
2023-01-29T12:43:04.993Z,0.40
2023-01-29T12:46:24.653Z,0.46
2023-01-29T12:49:34.364Z,0.44
2023-01-29T12:52:50.975Z,0.50
2023-01-29T12:56:02.829Z,0.47
2023-01-29T12:59:22.121Z,0.36
2023-01-29T13:02:30.098Z,0.28
2023-01-29T13:05:54.650Z,0.41
2023-01-29T13:09:03.651Z,0.49
2023-01-29T13:12:18.820Z,0.59
2023-01-29T13:15:29.044Z,0.70
2023-01-29T13:18:55.886Z,0.85
2023-01-29T13:22:03.362Z,0.89
2023-01-29T13:25:16.296Z,0.88
2023-01-29T13:28:23.272Z,0.86
2023-01-29T13:31:49.084Z,0.58
2023-01-29T13:34:57.356Z,0.62
2023-01-29T13:38:01.030Z,0.49
2023-01-29T13:41:12.891Z,0.55
2023-01-29T13:44:27.479Z,0.23
2023-01-29T13:47:33.706Z,0.12
2023-01-29T13:50:43.375Z,0.17
2023-01-29T13:54:01.974Z,0.14
2023-01-29T13:57:06.109Z,0.17
2023-01-29T14:00:34.538Z,0.12
2023-01-29T14:04:02.236Z,0.10
2023-01-29T14:07:45.336Z,0.12
2023-01-29T14:11:17.816Z,0.00
2023-01-29T14:14:50.759Z,-0.02
2023-01-29T14:18:09.005Z,0.08
2023-01-29T14:21:42.007Z,0.06
2023-01-29T14:24:46.077Z,-0.14
2023-01-29T14:27:50.232Z,-0.24
2023-01-29T14:30:57.117Z,-0.28
2023-01-29T14:34:04.472Z,-0.15
2023-01-29T14:37:15.474Z,0.11
2023-01-29T14:40:19.372Z,0.35
2023-01-29T14:43:23.079Z,0.20
2023-01-29T14:46:36.129Z,0.06
2023-01-29T14:49:55.807Z,0.04
2023-01-29T14:53:13.803Z,-0.15
2023-01-29T14:56:27.599Z,-0.38
2023-01-29T14:59:32.859Z,-0.44
2023-01-29T15:02:43.331Z,-0.48
2023-01-29T15:05:52.272Z,-0.60
2023-01-29T15:09:08.079Z,-0.66
2023-01-29T15:12:34.081Z,-0.79
2023-01-29T15:15:46.282Z,-0.87
2023-01-29T15:19:00.555Z,-1.02
2023-01-29T15:22:19.659Z,-1.11
2023-01-29T15:25:26.483Z,-1.15
2023-01-29T15:28:34.079Z,-1.20
2023-01-29T15:31:43.038Z,-1.19
2023-01-29T15:34:48.769Z,-1.32
2023-01-29T15:38:17.098Z,-1.43
2023-01-29T15:41:24.349Z,-1.66
2023-01-29T15:44:27.980Z,-1.94
2023-01-29T15:47:33.381Z,-2.03
2023-01-29T15:50:41.904Z,-2.14
2023-01-29T15:53:53.925Z,-2.25
2023-01-29T15:56:59.744Z,-2.25
2023-01-29T16:00:06.290Z,-2.45
2023-01-29T16:03:16.238Z,-2.63
2023-01-29T16:06:24.268Z,-2.87
2023-01-29T16:09:29.988Z,-3.12
2023-01-29T16:12:39.038Z,-3.26
2023-01-29T16:15:57.008Z,-3.37
2023-01-29T16:19:01.679Z,-3.30
2023-01-29T16:22:09.802Z,-3.29
2023-01-29T16:25:16.815Z,-3.18
2023-01-29T16:28:23.061Z,-3.33
2023-01-29T16:31:33.876Z,-3.54
2023-01-29T16:34:45.824Z,-3.39
2023-01-29T16:37:52.476Z,-3.33
2023-01-29T16:41:21.908Z,-3.47
2023-01-29T16:44:36.690Z,-3.23
2023-01-29T16:47:42.077Z,-3.02
2023-01-29T16:50:55.133Z,-2.87
2023-01-29T16:54:18.939Z,-2.68
2023-01-29T16:57:27.229Z,-2.69
2023-01-29T17:00:32.928Z,-2.71
2023-01-29T17:03:40.242Z,-2.69
2023-01-29T17:06:49.568Z,-2.81
2023-01-29T17:10:00.931Z,-2.77
2023-01-29T17:13:11.107Z,-2.58
2023-01-29T17:16:21.302Z,-2.54
2023-01-29T17:19:26.469Z,-2.61
2023-01-29T17:22:33.867Z,-2.71
2023-01-29T17:25:38.906Z,-2.87
2023-01-29T17:28:45.575Z,-3.01
2023-01-29T17:31:53.304Z,-3.00
2023-01-29T17:35:00.673Z,-3.11
2023-01-29T17:38:11.499Z,-3.03
2023-01-29T17:41:31.068Z,-3.08
2023-01-29T17:44:35.958Z,-3.12
2023-01-29T17:47:41.600Z,-3.24
2023-01-29T17:50:50.468Z,-3.27
2023-01-29T17:53:55.809Z,-3.49
2023-01-29T17:57:00.909Z,-3.68
2023-01-29T18:00:26.751Z,-3.82
2023-01-29T18:03:32.519Z,-3.93
2023-01-29T18:06:38.788Z,-3.95
2023-01-29T18:09:45.952Z,-4.05
2023-01-29T18:12:52.948Z,-4.12
2023-01-29T18:16:00.757Z,-4.20
2023-01-29T18:19:16.431Z,-4.17
2023-01-29T18:22:21.994Z,-4.08
2023-01-29T18:25:26.907Z,-4.09
2023-01-29T18:28:32.103Z,-4.16
2023-01-29T18:31:37.737Z,-4.09
2023-01-29T18:34:43.418Z,-4.10
2023-01-29T18:37:48.707Z,-4.10
2023-01-29T18:40:56.546Z,-4.24
2023-01-29T18:44:00.569Z,-4.29
2023-01-29T18:47:07.976Z,-4.41
2023-01-29T18:50:13.294Z,-4.42
2023-01-29T18:53:22.202Z,-4.48
2023-01-29T18:56:26.852Z,-4.71
2023-01-29T18:59:32.895Z,-4.61
2023-01-29T19:02:38.997Z,-4.69
2023-01-29T19:05:44.981Z,-4.56
2023-01-29T19:08:50.077Z,-4.51
2023-01-29T19:11:57.277Z,-4.62
2023-01-29T19:15:02.502Z,-4.67
2023-01-29T19:18:08.462Z,-4.71
2023-01-29T19:21:15.649Z,-4.75
2023-01-29T19:24:24.236Z,-4.74
2023-01-29T19:27:31.098Z,-4.63
2023-01-29T19:30:36.611Z,-4.54
2023-01-29T19:33:42.094Z,-4.41
2023-01-29T19:36:48.117Z,-4.50
2023-01-29T19:39:54.483Z,-4.51
2023-01-29T19:43:00.331Z,-4.62
2023-01-29T19:46:05.037Z,-4.61
2023-01-29T19:49:10.836Z,-4.60
2023-01-29T19:52:52.275Z,-4.68
2023-01-29T19:55:59.567Z,-4.70
2023-01-29T19:59:09.116Z,-4.73
2023-01-29T20:02:16.049Z,-4.71
2023-01-29T20:05:27.619Z,-4.65
2023-01-29T20:08:33.508Z,-4.61
2023-01-29T20:11:43.053Z,-4.50
2023-01-29T20:14:53.562Z,-4.60
2023-01-29T20:17:59.719Z,-4.47
2023-01-29T20:21:11.620Z,-4.30
2023-01-29T20:24:19.434Z,-4.30
2023-01-29T20:27:24.871Z,-4.55
2023-01-29T20:30:31.739Z,-4.66
2023-01-29T20:33:39.642Z,-4.82
2023-01-29T20:36:48.232Z,-4.74
2023-01-29T20:39:55.468Z,-5.09
2023-01-29T20:43:01.893Z,-4.94
2023-01-29T20:46:06.415Z,-4.87
2023-01-29T20:49:12.972Z,-5.10
2023-01-29T20:52:18.149Z,-4.99
2023-01-29T20:55:23.850Z,-4.95
2023-01-29T20:58:29.383Z,-5.07
2023-01-29T21:01:34.919Z,-4.86
2023-01-29T21:04:40.411Z,-4.72
2023-01-29T21:07:45.708Z,-4.76
2023-01-29T21:10:54.895Z,-4.81
2023-01-29T21:14:00.565Z,-4.80
2023-01-29T21:17:06.285Z,-4.67
2023-01-29T21:20:12.367Z,-4.50
2023-01-29T21:23:16.799Z,-4.45
2023-01-29T21:26:21.063Z,-4.40
2023-01-29T21:29:29.264Z,-4.36
2023-01-29T21:32:35.150Z,-4.35
2023-01-29T21:35:39.363Z,-4.63
2023-01-29T21:38:45.219Z,-4.48
2023-01-29T21:42:10.267Z,-4.59
2023-01-29T21:45:15.325Z,-4.76
2023-01-29T21:48:19.242Z,-4.81
2023-01-29T21:51:23.905Z,-4.91
2023-01-29T21:54:31.107Z,-4.93
2023-01-29T21:57:35.265Z,-5.03
2023-01-29T22:00:38.786Z,-5.10
2023-01-29T22:03:42.271Z,-5.11
2023-01-29T22:06:45.504Z,-5.03
2023-01-29T22:09:49.964Z,-5.00
2023-01-29T22:12:53.231Z,-4.98
2023-01-29T22:15:56.757Z,-4.94
2023-01-29T22:19:00.136Z,-4.88
2023-01-29T22:22:04.125Z,-4.86
2023-01-29T22:25:07.859Z,-4.84
2023-01-29T22:28:11.527Z,-4.79
2023-01-29T22:31:15.287Z,-4.83
2023-01-29T22:34:18.663Z,-4.84
2023-01-29T22:37:22.271Z,-4.78
2023-01-29T22:40:26.479Z,-4.77
2023-01-29T22:43:29.753Z,-4.73
2023-01-29T22:46:33.323Z,-4.71
2023-01-29T22:49:36.842Z,-4.67
2023-01-29T22:52:42.980Z,-4.62
2023-01-29T22:55:54.931Z,-4.66
2023-01-29T22:59:00.709Z,-4.74
2023-01-29T23:02:04.779Z,-4.82
2023-01-29T23:05:08.559Z,-4.92
2023-01-29T23:08:11.691Z,-4.87
2023-01-29T23:11:19.964Z,-4.96
2023-01-29T23:14:23.087Z,-5.06
2023-01-29T23:17:26.443Z,-5.06
2023-01-29T23:20:29.679Z,-5.11
2023-01-29T23:23:35.327Z,-5.27
2023-01-29T23:26:57.298Z,-5.39
2023-01-29T23:30:01.769Z,-5.50
2023-01-29T23:33:07.445Z,-5.58
2023-01-29T23:36:11.091Z,-5.72
2023-01-29T23:39:15.017Z,-5.77
2023-01-29T23:42:18.706Z,-5.79
2023-01-29T23:45:22.434Z,-5.85
2023-01-29T23:48:26.303Z,-5.94
2023-01-29T23:51:29.562Z,-5.88
2023-01-29T23:54:33.172Z,-5.93
2023-01-29T23:57:36.357Z,-5.97
